sensor_id;sensor_type;location;lat;lon;timestamp;temperature;humidity
15143;DHT22;7672;50.834;6.286;2023-03-01T00:01:20;2.40;99.90
15143;DHT22;7672;50.834;6.286;2023-03-01T00:03:49;2.40;99.90
15143;DHT22;7672;50.834;6.286;2023-03-01T00:06:16;2.40;99.90
15143;DHT22;7672;50.834;6.286;2023-03-01T00:08:43;2.30;99.90
15143;DHT22;7672;50.834;6.286;2023-03-01T00:11:24;2.30;99.90
15143;DHT22;7672;50.834;6.286;2023-03-01T00:13:55;2.30;99.90
15143;DHT22;7672;50.834;6.286;2023-03-01T00:16:36;2.30;99.90
15143;DHT22;7672;50.834;6.286;2023-03-01T00:19:07;2.30;99.90
15143;DHT22;7672;50.834;6.286;2023-03-01T00:21:37;2.30;99.90
15143;DHT22;7672;50.834;6.286;2023-03-01T00:24:04;2.20;99.90
15143;DHT22;7672;50.834;6.286;2023-03-01T00:26:31;2.30;99.90
15143;DHT22;7672;50.834;6.286;2023-03-01T00:28:59;2.20;99.90
15143;DHT22;7672;50.834;6.286;2023-03-01T00:31:29;2.20;99.90
15143;DHT22;7672;50.834;6.286;2023-03-01T00:33:59;2.20;99.90
15143;DHT22;7672;50.834;6.286;2023-03-01T00:36:31;2.20;99.90
15143;DHT22;7672;50.834;6.286;2023-03-01T00:39:00;2.10;99.90
15143;DHT22;7672;50.834;6.286;2023-03-01T00:41:27;2.10;99.90
15143;DHT22;7672;50.834;6.286;2023-03-01T00:43:55;2.10;99.90
15143;DHT22;7672;50.834;6.286;2023-03-01T00:46:24;2.10;99.90
15143;DHT22;7672;50.834;6.286;2023-03-01T00:48:53;2.00;99.90
15143;DHT22;7672;50.834;6.286;2023-03-01T00:51:25;2.00;99.90
15143;DHT22;7672;50.834;6.286;2023-03-01T00:53:55;2.00;99.90
15143;DHT22;7672;50.834;6.286;2023-03-01T00:56:27;2.00;99.90
15143;DHT22;7672;50.834;6.286;2023-03-01T00:58:55;2.00;99.90
15143;DHT22;7672;50.834;6.286;2023-03-01T01:01:24;1.90;99.90
15143;DHT22;7672;50.834;6.286;2023-03-01T01:03:57;1.90;99.90
15143;DHT22;7672;50.834;6.286;2023-03-01T01:06:36;1.90;99.90
15143;DHT22;7672;50.834;6.286;2023-03-01T01:09:16;1.90;99.90
15143;DHT22;7672;50.834;6.286;2023-03-01T01:11:49;1.90;99.90
15143;DHT22;7672;50.834;6.286;2023-03-01T01:14:18;1.90;99.90
15143;DHT22;7672;50.834;6.286;2023-03-01T01:16:45;1.90;99.90
15143;DHT22;7672;50.834;6.286;2023-03-01T01:19:12;1.90;99.90
15143;DHT22;7672;50.834;6.286;2023-03-01T01:21:40;1.90;99.90
15143;DHT22;7672;50.834;6.286;2023-03-01T01:24:09;1.90;99.90
15143;DHT22;7672;50.834;6.286;2023-03-01T01:26:36;1.90;99.90
15143;DHT22;7672;50.834;6.286;2023-03-01T01:29:04;1.90;99.90
15143;DHT22;7672;50.834;6.286;2023-03-01T01:31:33;1.90;99.90
15143;DHT22;7672;50.834;6.286;2023-03-01T01:34:03;1.90;99.90
15143;DHT22;7672;50.834;6.286;2023-03-01T01:36:32;1.90;99.90
15143;DHT22;7672;50.834;6.286;2023-03-01T01:39:01;1.90;99.90
15143;DHT22;7672;50.834;6.286;2023-03-01T01:41:29;1.90;99.90
15143;DHT22;7672;50.834;6.286;2023-03-01T01:47:17;1.90;99.90
15143;DHT22;7672;50.834;6.286;2023-03-01T01:49:54;1.90;99.90
15143;DHT22;7672;50.834;6.286;2023-03-01T01:52:26;1.90;99.90
15143;DHT22;7672;50.834;6.286;2023-03-01T01:57:43;1.90;99.90
15143;DHT22;7672;50.834;6.286;2023-03-01T02:00:16;1.90;99.90
15143;DHT22;7672;50.834;6.286;2023-03-01T02:02:47;1.90;99.90
15143;DHT22;7672;50.834;6.286;2023-03-01T02:05:26;1.80;99.90
15143;DHT22;7672;50.834;6.286;2023-03-01T02:07:59;1.80;99.90
15143;DHT22;7672;50.834;6.286;2023-03-01T02:10:28;1.80;99.90
15143;DHT22;7672;50.834;6.286;2023-03-01T02:12:55;1.80;99.90
15143;DHT22;7672;50.834;6.286;2023-03-01T02:15:23;1.70;99.90
15143;DHT22;7672;50.834;6.286;2023-03-01T02:17:50;1.70;99.90
15143;DHT22;7672;50.834;6.286;2023-03-01T02:21:37;1.60;99.90
15143;DHT22;7672;50.834;6.286;2023-03-01T02:23:35;1.60;99.90
15143;DHT22;7672;50.834;6.286;2023-03-01T02:29:08;1.50;99.90
15143;DHT22;7672;50.834;6.286;2023-03-01T02:31:34;1.40;99.90
15143;DHT22;7672;50.834;6.286;2023-03-01T02:34:22;1.40;99.90
15143;DHT22;7672;50.834;6.286;2023-03-01T02:37:06;1.30;99.90
15143;DHT22;7672;50.834;6.286;2023-03-01T02:39:39;1.30;99.90
15143;DHT22;7672;50.834;6.286;2023-03-01T02:42:14;1.20;99.90
15143;DHT22;7672;50.834;6.286;2023-03-01T02:44:46;1.20;99.90
15143;DHT22;7672;50.834;6.286;2023-03-01T02:47:12;1.20;99.90
15143;DHT22;7672;50.834;6.286;2023-03-01T02:49:39;1.10;99.90
15143;DHT22;7672;50.834;6.286;2023-03-01T02:55:06;1.10;99.90
15143;DHT22;7672;50.834;6.286;2023-03-01T02:57:41;1.00;99.90
15143;DHT22;7672;50.834;6.286;2023-03-01T03:00:13;1.00;99.90
15143;DHT22;7672;50.834;6.286;2023-03-01T03:02:49;1.00;99.90
15143;DHT22;7672;50.834;6.286;2023-03-01T03:05:26;1.00;99.90
15143;DHT22;7672;50.834;6.286;2023-03-01T03:07:54;0.90;99.90
15143;DHT22;7672;50.834;6.286;2023-03-01T03:10:31;0.90;99.90
15143;DHT22;7672;50.834;6.286;2023-03-01T03:13:02;0.90;99.90
15143;DHT22;7672;50.834;6.286;2023-03-01T03:15:31;0.80;99.90
15143;DHT22;7672;50.834;6.286;2023-03-01T03:18:05;0.80;99.90
15143;DHT22;7672;50.834;6.286;2023-03-01T03:20:34;0.80;99.90
15143;DHT22;7672;50.834;6.286;2023-03-01T03:23:02;0.80;99.90
15143;DHT22;7672;50.834;6.286;2023-03-01T03:25:30;0.80;99.90
15143;DHT22;7672;50.834;6.286;2023-03-01T03:27:57;0.80;99.90
15143;DHT22;7672;50.834;6.286;2023-03-01T03:30:27;0.80;99.90
15143;DHT22;7672;50.834;6.286;2023-03-01T03:32:56;0.80;99.90
15143;DHT22;7672;50.834;6.286;2023-03-01T03:35:32;0.80;99.90
15143;DHT22;7672;50.834;6.286;2023-03-01T03:38:06;0.80;99.90
15143;DHT22;7672;50.834;6.286;2023-03-01T03:40:44;0.90;99.90
15143;DHT22;7672;50.834;6.286;2023-03-01T03:43:21;0.80;99.90
15143;DHT22;7672;50.834;6.286;2023-03-01T03:45:50;0.90;99.90
15143;DHT22;7672;50.834;6.286;2023-03-01T03:48:18;0.90;99.90
15143;DHT22;7672;50.834;6.286;2023-03-01T03:50:53;0.90;99.90
15143;DHT22;7672;50.834;6.286;2023-03-01T03:53:23;0.90;99.90
15143;DHT22;7672;50.834;6.286;2023-03-01T03:55:52;0.80;99.90
15143;DHT22;7672;50.834;6.286;2023-03-01T03:58:21;0.80;99.90
15143;DHT22;7672;50.834;6.286;2023-03-01T04:00:52;0.80;99.90
15143;DHT22;7672;50.834;6.286;2023-03-01T04:03:24;0.80;99.90
15143;DHT22;7672;50.834;6.286;2023-03-01T04:05:52;0.80;99.90
15143;DHT22;7672;50.834;6.286;2023-03-01T04:08:21;0.70;99.90
15143;DHT22;7672;50.834;6.286;2023-03-01T04:10:51;0.70;99.90
15143;DHT22;7672;50.834;6.286;2023-03-01T04:13:23;0.60;99.90
15143;DHT22;7672;50.834;6.286;2023-03-01T04:15:53;0.60;99.90
15143;DHT22;7672;50.834;6.286;2023-03-01T04:18:23;0.60;99.90
15143;DHT22;7672;50.834;6.286;2023-03-01T04:20:52;0.50;99.90
15143;DHT22;7672;50.834;6.286;2023-03-01T04:23:21;0.50;99.90
15143;DHT22;7672;50.834;6.286;2023-03-01T04:25:56;0.50;99.90
15143;DHT22;7672;50.834;6.286;2023-03-01T04:28:29;0.50;99.90
15143;DHT22;7672;50.834;6.286;2023-03-01T04:31:04;0.50;99.90
15143;DHT22;7672;50.834;6.286;2023-03-01T04:33:44;0.50;99.90
15143;DHT22;7672;50.834;6.286;2023-03-01T04:36:20;0.40;99.90
15143;DHT22;7672;50.834;6.286;2023-03-01T04:38:49;0.40;99.90
15143;DHT22;7672;50.834;6.286;2023-03-01T04:41:18;0.40;99.90
15143;DHT22;7672;50.834;6.286;2023-03-01T04:43:47;0.40;99.90
15143;DHT22;7672;50.834;6.286;2023-03-01T04:46:17;0.40;99.90
15143;DHT22;7672;50.834;6.286;2023-03-01T04:48:46;0.30;99.90
15143;DHT22;7672;50.834;6.286;2023-03-01T04:51:13;0.30;99.90
15143;DHT22;7672;50.834;6.286;2023-03-01T04:53:42;0.30;99.90
15143;DHT22;7672;50.834;6.286;2023-03-01T04:56:09;0.30;99.90
15143;DHT22;7672;50.834;6.286;2023-03-01T04:58:36;0.30;99.90
15143;DHT22;7672;50.834;6.286;2023-03-01T05:01:12;0.30;99.90
15143;DHT22;7672;50.834;6.286;2023-03-01T05:03:45;0.30;99.90
15143;DHT22;7672;50.834;6.286;2023-03-01T05:06:14;0.30;99.90
15143;DHT22;7672;50.834;6.286;2023-03-01T05:08:42;0.30;99.90
15143;DHT22;7672;50.834;6.286;2023-03-01T05:11:11;0.30;99.90
15143;DHT22;7672;50.834;6.286;2023-03-01T05:13:39;0.30;99.90
15143;DHT22;7672;50.834;6.286;2023-03-01T05:16:07;0.30;99.90
15143;DHT22;7672;50.834;6.286;2023-03-01T05:18:39;0.30;99.90
15143;DHT22;7672;50.834;6.286;2023-03-01T05:21:10;0.30;99.90
15143;DHT22;7672;50.834;6.286;2023-03-01T05:23:39;0.30;99.90
15143;DHT22;7672;50.834;6.286;2023-03-01T05:26:06;0.30;99.90
15143;DHT22;7672;50.834;6.286;2023-03-01T05:28:51;0.30;99.90
15143;DHT22;7672;50.834;6.286;2023-03-01T05:31:18;0.30;99.90
15143;DHT22;7672;50.834;6.286;2023-03-01T05:33:45;0.20;99.90
15143;DHT22;7672;50.834;6.286;2023-03-01T05:36:12;0.30;99.90
15143;DHT22;7672;50.834;6.286;2023-03-01T05:38:39;0.30;99.90
15143;DHT22;7672;50.834;6.286;2023-03-01T05:41:14;0.20;99.90
15143;DHT22;7672;50.834;6.286;2023-03-01T05:43:42;0.30;99.90
15143;DHT22;7672;50.834;6.286;2023-03-01T05:46:11;0.20;99.90
15143;DHT22;7672;50.834;6.286;2023-03-01T05:48:40;0.30;99.90
15143;DHT22;7672;50.834;6.286;2023-03-01T05:51:07;0.20;99.90
15143;DHT22;7672;50.834;6.286;2023-03-01T05:53:34;0.20;99.90
15143;DHT22;7672;50.834;6.286;2023-03-01T05:56:06;0.20;99.90
15143;DHT22;7672;50.834;6.286;2023-03-01T05:58:33;0.20;99.90
15143;DHT22;7672;50.834;6.286;2023-03-01T06:01:00;0.20;99.90
15143;DHT22;7672;50.834;6.286;2023-03-01T06:03:27;0.10;99.90
15143;DHT22;7672;50.834;6.286;2023-03-01T06:05:57;0.10;99.90
15143;DHT22;7672;50.834;6.286;2023-03-01T06:08:25;0.10;99.90
15143;DHT22;7672;50.834;6.286;2023-03-01T06:10:53;0.00;99.90
15143;DHT22;7672;50.834;6.286;2023-03-01T06:13:20;0.00;99.90
15143;DHT22;7672;50.834;6.286;2023-03-01T06:15:47;0.00;99.90
15143;DHT22;7672;50.834;6.286;2023-03-01T06:18:14;0.00;99.90
15143;DHT22;7672;50.834;6.286;2023-03-01T06:20:40;-0.10;99.90
15143;DHT22;7672;50.834;6.286;2023-03-01T06:23:07;-0.10;99.90
15143;DHT22;7672;50.834;6.286;2023-03-01T06:25:37;-0.10;99.90
15143;DHT22;7672;50.834;6.286;2023-03-01T06:28:04;-0.10;99.90
15143;DHT22;7672;50.834;6.286;2023-03-01T06:30:30;-0.10;99.90
15143;DHT22;7672;50.834;6.286;2023-03-01T06:32:58;-0.10;99.90
15143;DHT22;7672;50.834;6.286;2023-03-01T06:35:28;-0.10;99.90
15143;DHT22;7672;50.834;6.286;2023-03-01T06:38:00;-0.10;99.90
15143;DHT22;7672;50.834;6.286;2023-03-01T06:40:29;-0.10;99.90
15143;DHT22;7672;50.834;6.286;2023-03-01T06:42:58;-0.10;99.90
15143;DHT22;7672;50.834;6.286;2023-03-01T06:45:25;-0.10;99.90
15143;DHT22;7672;50.834;6.286;2023-03-01T06:47:51;0.00;99.90
15143;DHT22;7672;50.834;6.286;2023-03-01T06:50:18;0.10;99.90
15143;DHT22;7672;50.834;6.286;2023-03-01T06:52:45;0.20;99.90
15143;DHT22;7672;50.834;6.286;2023-03-01T06:55:12;0.40;99.90
15143;DHT22;7672;50.834;6.286;2023-03-01T06:57:39;0.70;99.90
15143;DHT22;7672;50.834;6.286;2023-03-01T07:00:07;1.00;99.90
15143;DHT22;7672;50.834;6.286;2023-03-01T07:02:35;1.30;99.90
15143;DHT22;7672;50.834;6.286;2023-03-01T07:05:02;1.70;99.90
15143;DHT22;7672;50.834;6.286;2023-03-01T07:07:28;2.10;99.90
15143;DHT22;7672;50.834;6.286;2023-03-01T07:09:55;2.50;99.90
15143;DHT22;7672;50.834;6.286;2023-03-01T07:12:22;2.90;99.90
15143;DHT22;7672;50.834;6.286;2023-03-01T07:14:49;3.30;99.90
15143;DHT22;7672;50.834;6.286;2023-03-01T07:17:16;3.70;99.90
15143;DHT22;7672;50.834;6.286;2023-03-01T07:19:43;4.00;99.90
15143;DHT22;7672;50.834;6.286;2023-03-01T07:22:11;4.20;99.90
15143;DHT22;7672;50.834;6.286;2023-03-01T07:24:38;4.50;99.90
15143;DHT22;7672;50.834;6.286;2023-03-01T07:27:04;4.80;99.90
15143;DHT22;7672;50.834;6.286;2023-03-01T07:29:31;5.00;99.90
15143;DHT22;7672;50.834;6.286;2023-03-01T07:31:58;5.20;99.90
15143;DHT22;7672;50.834;6.286;2023-03-01T07:34:25;5.40;99.90
15143;DHT22;7672;50.834;6.286;2023-03-01T07:36:52;5.60;99.90
15143;DHT22;7672;50.834;6.286;2023-03-01T07:39:19;5.90;99.90
15143;DHT22;7672;50.834;6.286;2023-03-01T07:41:45;6.10;99.90
15143;DHT22;7672;50.834;6.286;2023-03-01T07:44:12;6.40;99.90
15143;DHT22;7672;50.834;6.286;2023-03-01T07:46:39;6.70;99.90
15143;DHT22;7672;50.834;6.286;2023-03-01T07:49:06;7.00;99.90
15143;DHT22;7672;50.834;6.286;2023-03-01T07:51:33;7.40;99.90
15143;DHT22;7672;50.834;6.286;2023-03-01T07:54:00;7.70;99.90
15143;DHT22;7672;50.834;6.286;2023-03-01T07:56:26;7.90;99.90
15143;DHT22;7672;50.834;6.286;2023-03-01T07:58:53;8.20;99.90
15143;DHT22;7672;50.834;6.286;2023-03-01T08:01:21;8.40;99.90
15143;DHT22;7672;50.834;6.286;2023-03-01T08:03:48;8.70;99.90
15143;DHT22;7672;50.834;6.286;2023-03-01T08:06:16;8.90;99.90
15143;DHT22;7672;50.834;6.286;2023-03-01T08:08:44;9.10;99.90
15143;DHT22;7672;50.834;6.286;2023-03-01T08:11:13;9.30;99.90
15143;DHT22;7672;50.834;6.286;2023-03-01T08:13:42;9.40;99.90
15143;DHT22;7672;50.834;6.286;2023-03-01T08:16:14;9.50;99.90
15143;DHT22;7672;50.834;6.286;2023-03-01T08:18:42;9.40;99.90
15143;DHT22;7672;50.834;6.286;2023-03-01T08:21:15;9.40;99.90
15143;DHT22;7672;50.834;6.286;2023-03-01T08:23:43;9.40;99.90
15143;DHT22;7672;50.834;6.286;2023-03-01T08:26:14;9.50;99.90
15143;DHT22;7672;50.834;6.286;2023-03-01T08:28:45;9.50;99.90
15143;DHT22;7672;50.834;6.286;2023-03-01T08:31:26;9.60;99.90
15143;DHT22;7672;50.834;6.286;2023-03-01T08:33:57;9.70;99.90
15143;DHT22;7672;50.834;6.286;2023-03-01T08:36:28;10.10;99.90
15143;DHT22;7672;50.834;6.286;2023-03-01T08:38:57;10.00;99.90
15143;DHT22;7672;50.834;6.286;2023-03-01T08:41:25;10.10;99.90
15143;DHT22;7672;50.834;6.286;2023-03-01T08:43:52;10.20;99.90
15143;DHT22;7672;50.834;6.286;2023-03-01T08:46:26;10.40;99.90
15143;DHT22;7672;50.834;6.286;2023-03-01T08:49:02;10.50;99.90
15143;DHT22;7672;50.834;6.286;2023-03-01T08:51:30;10.60;99.90
15143;DHT22;7672;50.834;6.286;2023-03-01T08:54:09;10.90;99.90
15143;DHT22;7672;50.834;6.286;2023-03-01T08:56:38;11.30;99.90
15143;DHT22;7672;50.834;6.286;2023-03-01T08:59:05;11.20;99.90
15143;DHT22;7672;50.834;6.286;2023-03-01T09:01:32;11.50;99.90
15143;DHT22;7672;50.834;6.286;2023-03-01T09:03:59;11.70;99.90
15143;DHT22;7672;50.834;6.286;2023-03-01T09:06:26;11.80;98.50
15143;DHT22;7672;50.834;6.286;2023-03-01T09:08:53;12.00;98.50
15143;DHT22;7672;50.834;6.286;2023-03-01T09:11:21;12.10;99.30
15143;DHT22;7672;50.834;6.286;2023-03-01T09:13:49;12.20;98.30
15143;DHT22;7672;50.834;6.286;2023-03-01T09:16:19;12.30;98.30
15143;DHT22;7672;50.834;6.286;2023-03-01T09:18:54;12.50;98.80
15143;DHT22;7672;50.834;6.286;2023-03-01T09:21:23;12.60;98.40
15143;DHT22;7672;50.834;6.286;2023-03-01T09:24:06;12.90;97.40
15143;DHT22;7672;50.834;6.286;2023-03-01T09:26:38;13.10;97.50
15143;DHT22;7672;50.834;6.286;2023-03-01T09:29:05;13.20;96.50
15143;DHT22;7672;50.834;6.286;2023-03-01T09:31:32;13.30;96.40
15143;DHT22;7672;50.834;6.286;2023-03-01T09:33:59;13.40;95.50
15143;DHT22;7672;50.834;6.286;2023-03-01T09:36:25;13.40;94.60
15143;DHT22;7672;50.834;6.286;2023-03-01T09:38:52;13.40;94.30
15143;DHT22;7672;50.834;6.286;2023-03-01T09:47:25;13.00;94.40
15143;DHT22;7672;50.834;6.286;2023-03-01T09:53:04;12.70;94.30
15143;DHT22;7672;50.834;6.286;2023-03-01T09:55:38;12.60;94.40
15143;DHT22;7672;50.834;6.286;2023-03-01T10:00:56;12.60;94.40
15143;DHT22;7672;50.834;6.286;2023-03-01T10:03:36;12.60;94.60
15143;DHT22;7672;50.834;6.286;2023-03-01T10:09:13;12.60;94.60
15143;DHT22;7672;50.834;6.286;2023-03-01T10:11:49;12.60;94.00
15143;DHT22;7672;50.834;6.286;2023-03-01T10:19:55;13.00;94.50
15143;DHT22;7672;50.834;6.286;2023-03-01T10:22:37;13.10;94.80
15143;DHT22;7672;50.834;6.286;2023-03-01T10:25:04;13.20;95.00
15143;DHT22;7672;50.834;6.286;2023-03-01T10:27:52;13.30;94.10
15143;DHT22;7672;50.834;6.286;2023-03-01T10:30:34;13.50;94.00
15143;DHT22;7672;50.834;6.286;2023-03-01T10:33:23;13.60;93.50
15143;DHT22;7672;50.834;6.286;2023-03-01T10:35:53;13.60;93.50
15143;DHT22;7672;50.834;6.286;2023-03-01T10:38:20;13.70;93.40
15143;DHT22;7672;50.834;6.286;2023-03-01T10:41:05;13.70;93.30
15143;DHT22;7672;50.834;6.286;2023-03-01T10:43:48;13.70;92.50
15143;DHT22;7672;50.834;6.286;2023-03-01T10:51:49;13.50;92.00
15143;DHT22;7672;50.834;6.286;2023-03-01T10:54:28;13.50;91.90
15143;DHT22;7672;50.834;6.286;2023-03-01T10:57:01;13.40;91.80
15143;DHT22;7672;50.834;6.286;2023-03-01T10:59:36;13.20;92.70
15143;DHT22;7672;50.834;6.286;2023-03-01T11:02:28;13.20;92.30
15143;DHT22;7672;50.834;6.286;2023-03-01T11:10:27;12.60;92.00
15143;DHT22;7672;50.834;6.286;2023-03-01T11:13:17;12.40;92.90
15143;DHT22;7672;50.834;6.286;2023-03-01T11:16:06;12.20;92.80
15143;DHT22;7672;50.834;6.286;2023-03-01T11:18:38;11.90;93.50
15143;DHT22;7672;50.834;6.286;2023-03-01T11:21:15;11.80;93.50
15143;DHT22;7672;50.834;6.286;2023-03-01T11:23:43;11.70;94.60
15143;DHT22;7672;50.834;6.286;2023-03-01T11:26:13;11.70;93.80
15143;DHT22;7672;50.834;6.286;2023-03-01T11:28:43;11.70;94.40
15143;DHT22;7672;50.834;6.286;2023-03-01T11:31:14;11.70;94.00
15143;DHT22;7672;50.834;6.286;2023-03-01T11:33:50;11.70;94.20
15143;DHT22;7672;50.834;6.286;2023-03-01T11:36:35;11.60;94.10
15143;DHT22;7672;50.834;6.286;2023-03-01T11:39:32;11.70;93.60
15143;DHT22;7672;50.834;6.286;2023-03-01T11:42:20;11.60;94.40
15143;DHT22;7672;50.834;6.286;2023-03-01T11:44:59;11.60;94.70
15143;DHT22;7672;50.834;6.286;2023-03-01T11:48:05;11.60;95.50
15143;DHT22;7672;50.834;6.286;2023-03-01T11:50:45;11.70;94.80
15143;DHT22;7672;50.834;6.286;2023-03-01T11:54:09;11.80;95.50
15143;DHT22;7672;50.834;6.286;2023-03-01T11:56:35;11.90;95.10
15143;DHT22;7672;50.834;6.286;2023-03-01T12:05:41;12.20;94.70
15143;DHT22;7672;50.834;6.286;2023-03-01T12:11:34;12.30;94.90
15143;DHT22;7672;50.834;6.286;2023-03-01T12:17:25;12.40;94.60
15143;DHT22;7672;50.834;6.286;2023-03-01T12:20:10;12.50;95.80
15143;DHT22;7672;50.834;6.286;2023-03-01T12:23:16;12.50;94.90
15143;DHT22;7672;50.834;6.286;2023-03-01T12:26:23;12.40;94.70
15143;DHT22;7672;50.834;6.286;2023-03-01T12:49:12;11.30;94.30
15143;DHT22;7672;50.834;6.286;2023-03-01T12:51:50;11.20;95.60
15143;DHT22;7672;50.834;6.286;2023-03-01T12:54:31;11.00;95.20
15143;DHT22;7672;50.834;6.286;2023-03-01T12:57:18;10.90;95.00
15143;DHT22;7672;50.834;6.286;2023-03-01T13:02:49;10.70;95.20
15143;DHT22;7672;50.834;6.286;2023-03-01T13:08:40;10.50;95.90
15143;DHT22;7672;50.834;6.286;2023-03-01T13:11:23;10.40;95.70
15143;DHT22;7672;50.834;6.286;2023-03-01T13:13:50;10.30;96.50
15143;DHT22;7672;50.834;6.286;2023-03-01T13:16:22;10.20;96.70
15143;DHT22;7672;50.834;6.286;2023-03-01T13:19:14;10.20;97.20
15143;DHT22;7672;50.834;6.286;2023-03-01T13:21:44;10.10;96.40
15143;DHT22;7672;50.834;6.286;2023-03-01T13:24:38;10.10;97.00
15143;DHT22;7672;50.834;6.286;2023-03-01T13:29:57;10.00;97.60
15143;DHT22;7672;50.834;6.286;2023-03-01T13:32:31;10.00;96.70
15143;DHT22;7672;50.834;6.286;2023-03-01T13:37:46;9.80;96.70
15143;DHT22;7672;50.834;6.286;2023-03-01T13:42:49;9.70;97.20
15143;DHT22;7672;50.834;6.286;2023-03-01T13:45:42;9.70;97.00
15143;DHT22;7672;50.834;6.286;2023-03-01T13:48:24;9.70;97.60
15143;DHT22;7672;50.834;6.286;2023-03-01T13:50:59;9.70;96.80
15143;DHT22;7672;50.834;6.286;2023-03-01T13:53:31;9.70;96.90
15143;DHT22;7672;50.834;6.286;2023-03-01T13:56:13;9.60;97.30
15143;DHT22;7672;50.834;6.286;2023-03-01T13:59:04;9.60;97.80
15143;DHT22;7672;50.834;6.286;2023-03-01T14:01:39;9.50;97.90
15143;DHT22;7672;50.834;6.286;2023-03-01T14:04:23;9.60;99.20
15143;DHT22;7672;50.834;6.286;2023-03-01T14:07:13;9.40;98.80
15143;DHT22;7672;50.834;6.286;2023-03-01T14:09:47;9.40;99.30
15143;DHT22;7672;50.834;6.286;2023-03-01T14:15:31;9.40;97.70
15143;DHT22;7672;50.834;6.286;2023-03-01T14:18:10;9.30;97.90
15143;DHT22;7672;50.834;6.286;2023-03-01T14:20:43;9.30;98.90
15143;DHT22;7672;50.834;6.286;2023-03-01T14:23:22;9.30;99.00
15143;DHT22;7672;50.834;6.286;2023-03-01T14:25:55;9.20;99.10
15143;DHT22;7672;50.834;6.286;2023-03-01T14:28:31;9.20;98.80
15143;DHT22;7672;50.834;6.286;2023-03-01T14:31:01;9.20;99.10
15143;DHT22;7672;50.834;6.286;2023-03-01T14:38:43;9.10;98.70
15143;DHT22;7672;50.834;6.286;2023-03-01T14:41:19;9.10;99.10
15143;DHT22;7672;50.834;6.286;2023-03-01T14:43:55;9.00;98.70
15143;DHT22;7672;50.834;6.286;2023-03-01T14:46:33;8.90;99.30
15143;DHT22;7672;50.834;6.286;2023-03-01T14:49:04;8.90;99.90
15143;DHT22;7672;50.834;6.286;2023-03-01T14:51:42;8.90;99.90
15143;DHT22;7672;50.834;6.286;2023-03-01T14:54:27;8.80;99.60
15143;DHT22;7672;50.834;6.286;2023-03-01T14:57:18;8.80;99.90
15143;DHT22;7672;50.834;6.286;2023-03-01T14:59:55;8.80;99.80
15143;DHT22;7672;50.834;6.286;2023-03-01T15:02:27;8.80;99.70
15143;DHT22;7672;50.834;6.286;2023-03-01T15:04:58;8.80;99.10
15143;DHT22;7672;50.834;6.286;2023-03-01T15:07:31;8.80;99.70
15143;DHT22;7672;50.834;6.286;2023-03-01T15:10:01;8.80;99.90
15143;DHT22;7672;50.834;6.286;2023-03-01T15:12:38;8.80;98.90
15143;DHT22;7672;50.834;6.286;2023-03-01T15:17:57;8.70;99.90
15143;DHT22;7672;50.834;6.286;2023-03-01T15:20:27;8.70;99.90
15143;DHT22;7672;50.834;6.286;2023-03-01T15:22:57;8.70;99.90
15143;DHT22;7672;50.834;6.286;2023-03-01T15:25:28;8.70;99.90
15143;DHT22;7672;50.834;6.286;2023-03-01T15:27:58;8.50;99.90
15143;DHT22;7672;50.834;6.286;2023-03-01T15:30:33;8.70;99.90
15143;DHT22;7672;50.834;6.286;2023-03-01T15:33:31;8.70;99.90
15143;DHT22;7672;50.834;6.286;2023-03-01T15:39:30;8.70;99.90
15143;DHT22;7672;50.834;6.286;2023-03-01T15:47:48;8.60;99.90
15143;DHT22;7672;50.834;6.286;2023-03-01T15:50:30;8.50;99.90
15143;DHT22;7672;50.834;6.286;2023-03-01T15:53:00;8.50;99.90
15143;DHT22;7672;50.834;6.286;2023-03-01T15:55:32;8.40;99.90
15143;DHT22;7672;50.834;6.286;2023-03-01T15:58:14;8.40;99.90
15143;DHT22;7672;50.834;6.286;2023-03-01T16:00:44;8.40;99.90
15143;DHT22;7672;50.834;6.286;2023-03-01T16:03:26;8.40;99.90
15143;DHT22;7672;50.834;6.286;2023-03-01T16:05:54;8.30;99.90
15143;DHT22;7672;50.834;6.286;2023-03-01T16:08:21;8.30;99.90
15143;DHT22;7672;50.834;6.286;2023-03-01T16:10:48;8.30;99.90
15143;DHT22;7672;50.834;6.286;2023-03-01T16:13:17;8.20;99.90
15143;DHT22;7672;50.834;6.286;2023-03-01T16:15:44;8.20;99.90
15143;DHT22;7672;50.834;6.286;2023-03-01T16:18:11;8.20;99.90
15143;DHT22;7672;50.834;6.286;2023-03-01T16:20:38;8.20;99.90
15143;DHT22;7672;50.834;6.286;2023-03-01T16:23:07;8.10;99.90
15143;DHT22;7672;50.834;6.286;2023-03-01T16:25:37;8.10;99.90
15143;DHT22;7672;50.834;6.286;2023-03-01T16:28:04;8.10;99.90
15143;DHT22;7672;50.834;6.286;2023-03-01T16:30:37;8.10;99.90
15143;DHT22;7672;50.834;6.286;2023-03-01T16:33:05;8.00;99.90
15143;DHT22;7672;50.834;6.286;2023-03-01T16:35:50;8.00;99.90
15143;DHT22;7672;50.834;6.286;2023-03-01T16:38:17;8.00;99.90
15143;DHT22;7672;50.834;6.286;2023-03-01T16:40:48;8.00;99.90
15143;DHT22;7672;50.834;6.286;2023-03-01T16:43:17;7.90;99.90
15143;DHT22;7672;50.834;6.286;2023-03-01T16:45:43;7.90;99.90
15143;DHT22;7672;50.834;6.286;2023-03-01T16:48:14;7.80;99.90
15143;DHT22;7672;50.834;6.286;2023-03-01T16:50:41;7.70;99.90
15143;DHT22;7672;50.834;6.286;2023-03-01T16:53:08;7.70;99.90
15143;DHT22;7672;50.834;6.286;2023-03-01T16:55:35;7.60;99.90
15143;DHT22;7672;50.834;6.286;2023-03-01T16:58:02;7.50;99.90
15143;DHT22;7672;50.834;6.286;2023-03-01T17:00:29;7.50;99.90
15143;DHT22;7672;50.834;6.286;2023-03-01T17:02:55;7.40;99.90
15143;DHT22;7672;50.834;6.286;2023-03-01T17:05:22;7.40;99.90
15143;DHT22;7672;50.834;6.286;2023-03-01T17:07:50;7.30;99.90
15143;DHT22;7672;50.834;6.286;2023-03-01T17:10:18;7.20;99.90
15143;DHT22;7672;50.834;6.286;2023-03-01T17:12:48;7.10;99.90
15143;DHT22;7672;50.834;6.286;2023-03-01T17:15:16;7.00;99.90
15143;DHT22;7672;50.834;6.286;2023-03-01T17:17:43;7.00;99.90
15143;DHT22;7672;50.834;6.286;2023-03-01T17:20:10;6.90;99.90
15143;DHT22;7672;50.834;6.286;2023-03-01T17:22:37;6.80;99.90
15143;DHT22;7672;50.834;6.286;2023-03-01T17:25:07;6.80;99.90
15143;DHT22;7672;50.834;6.286;2023-03-01T17:27:37;6.80;99.90
15143;DHT22;7672;50.834;6.286;2023-03-01T17:30:06;6.70;99.90
15143;DHT22;7672;50.834;6.286;2023-03-01T17:32:34;6.70;99.90
15143;DHT22;7672;50.834;6.286;2023-03-01T17:35:01;6.60;99.90
15143;DHT22;7672;50.834;6.286;2023-03-01T17:37:28;6.50;99.90
15143;DHT22;7672;50.834;6.286;2023-03-01T17:39:55;6.50;99.90
15143;DHT22;7672;50.834;6.286;2023-03-01T17:42:22;6.50;99.90
15143;DHT22;7672;50.834;6.286;2023-03-01T17:44:49;6.50;99.90
15143;DHT22;7672;50.834;6.286;2023-03-01T17:47:15;6.40;99.90
15143;DHT22;7672;50.834;6.286;2023-03-01T17:49:42;6.40;99.90
15143;DHT22;7672;50.834;6.286;2023-03-01T17:52:09;6.40;99.90
15143;DHT22;7672;50.834;6.286;2023-03-01T17:54:36;6.30;99.90
15143;DHT22;7672;50.834;6.286;2023-03-01T17:57:03;6.20;99.90
15143;DHT22;7672;50.834;6.286;2023-03-01T17:59:29;6.20;99.90
15143;DHT22;7672;50.834;6.286;2023-03-01T18:01:59;6.10;99.90
15143;DHT22;7672;50.834;6.286;2023-03-01T18:04:27;6.10;99.90
15143;DHT22;7672;50.834;6.286;2023-03-01T18:06:54;6.00;99.90
15143;DHT22;7672;50.834;6.286;2023-03-01T18:09:21;6.00;99.90
15143;DHT22;7672;50.834;6.286;2023-03-01T18:11:48;6.00;99.90
15143;DHT22;7672;50.834;6.286;2023-03-01T18:14:15;5.90;99.90
15143;DHT22;7672;50.834;6.286;2023-03-01T18:16:41;5.90;99.90
15143;DHT22;7672;50.834;6.286;2023-03-01T18:19:10;5.80;99.90